createdAt,value
2022-08-02T00:00:34.055Z,17.60
2022-08-02T00:03:00.786Z,17.50
2022-08-02T00:05:27.531Z,17.50
2022-08-02T00:07:54.265Z,17.40
2022-08-02T00:10:21.085Z,17.40
2022-08-02T00:12:47.776Z,17.40
2022-08-02T00:15:16.355Z,17.30
2022-08-02T00:17:44.543Z,17.30
2022-08-02T00:20:13.308Z,17.30
2022-08-02T00:22:40.043Z,17.30
2022-08-02T00:25:07.320Z,17.20
2022-08-02T00:27:34.164Z,17.20
2022-08-02T00:30:00.882Z,17.20
2022-08-02T00:32:27.700Z,17.10
2022-08-02T00:34:54.418Z,17.10
2022-08-02T00:37:21.214Z,17.10
2022-08-02T00:39:47.998Z,17.10
2022-08-02T00:42:15.989Z,17.10
2022-08-02T00:44:42.986Z,17.10
2022-08-02T00:47:10.036Z,17.10
2022-08-02T00:49:37.460Z,17.00
2022-08-02T00:52:04.838Z,17.00
2022-08-02T00:54:31.709Z,17.00
2022-08-02T00:56:58.617Z,17.00
2022-08-02T00:59:25.370Z,17.00
2022-08-02T01:01:57.320Z,17.10
2022-08-02T01:04:30.044Z,17.10
2022-08-02T01:07:04.012Z,17.10
2022-08-02T01:09:40.756Z,17.10
2022-08-02T01:12:07.921Z,17.00
2022-08-02T01:14:34.902Z,17.00
2022-08-02T01:17:10.471Z,16.90
2022-08-02T01:19:47.906Z,16.90
2022-08-02T01:22:59.637Z,16.90
2022-08-02T01:25:31.198Z,16.80
2022-08-02T01:28:19.775Z,16.80
2022-08-02T01:30:51.826Z,16.70
2022-08-02T01:33:20.972Z,16.70
2022-08-02T01:35:54.022Z,16.70
2022-08-02T01:38:54.561Z,16.70
2022-08-02T01:41:24.810Z,16.60
2022-08-02T01:43:55.776Z,16.60
2022-08-02T01:46:24.362Z,16.60
2022-08-02T01:48:53.379Z,16.50
2022-08-02T01:51:41.237Z,16.60
2022-08-02T01:54:11.780Z,16.50
2022-08-02T01:56:40.608Z,16.50
2022-08-02T01:59:11.465Z,16.40
2022-08-02T02:01:39.545Z,16.50
2022-08-02T02:04:08.579Z,16.40
2022-08-02T02:06:37.033Z,16.40
2022-08-02T02:09:05.810Z,16.40
2022-08-02T02:12:14.714Z,16.40
2022-08-02T02:14:21.730Z,16.30
2022-08-02T02:16:49.679Z,16.30
2022-08-02T02:19:21.246Z,16.30
2022-08-02T02:21:49.592Z,16.30
2022-08-02T02:24:16.381Z,16.20
2022-08-02T02:26:48.637Z,16.20
2022-08-02T02:29:22.027Z,16.10
2022-08-02T02:31:52.660Z,16.10
2022-08-02T02:34:41.237Z,16.10
2022-08-02T02:37:21.418Z,16.00
2022-08-02T02:39:51.065Z,16.00
2022-08-02T02:42:21.518Z,15.90
2022-08-02T02:44:49.377Z,15.90
2022-08-02T02:47:18.986Z,15.90
2022-08-02T02:49:48.580Z,15.80
2022-08-02T02:52:17.273Z,15.80
2022-08-02T02:54:47.828Z,15.80
2022-08-02T02:57:15.216Z,15.70
2022-08-02T02:59:49.167Z,15.70
2022-08-02T03:02:18.145Z,15.70
2022-08-02T03:04:56.708Z,15.70
2022-08-02T03:07:24.579Z,15.60
2022-08-02T03:09:54.144Z,15.60
2022-08-02T03:12:25.887Z,15.60
2022-08-02T03:14:59.828Z,15.50
2022-08-02T03:17:35.023Z,15.50
2022-08-02T03:20:01.748Z,15.50
2022-08-02T03:22:28.467Z,15.40
2022-08-02T03:24:55.155Z,15.40
2022-08-02T03:27:21.843Z,15.40
2022-08-02T03:29:48.536Z,15.40
2022-08-02T03:32:15.333Z,15.40
2022-08-02T03:34:42.071Z,15.30
2022-08-02T03:37:09.602Z,15.30
2022-08-02T03:39:36.652Z,15.40
2022-08-02T03:42:09.999Z,15.50
2022-08-02T03:44:42.941Z,15.50
2022-08-02T03:47:10.400Z,15.40
2022-08-02T03:49:38.588Z,15.50
2022-08-02T03:52:06.963Z,15.50
2022-08-02T03:54:34.567Z,15.50
2022-08-02T03:57:11.981Z,15.50
2022-08-02T03:59:46.206Z,15.50
2022-08-02T04:02:14.047Z,15.40
2022-08-02T04:04:41.054Z,15.40
2022-08-02T04:07:07.895Z,15.40
2022-08-02T04:09:34.690Z,15.50
2022-08-02T04:12:01.396Z,15.50
2022-08-02T04:14:28.435Z,15.50
2022-08-02T04:17:02.063Z,15.40
2022-08-02T04:19:38.726Z,15.50
2022-08-02T04:22:14.390Z,15.60
2022-08-02T04:24:47.270Z,15.70
2022-08-02T04:27:35.547Z,15.70
2022-08-02T04:30:06.461Z,15.80
2022-08-02T04:32:33.357Z,15.80
2022-08-02T04:35:18.739Z,15.80
2022-08-02T04:38:08.470Z,15.80
2022-08-02T04:40:33.938Z,15.90
2022-08-02T04:43:00.745Z,15.90
2022-08-02T04:45:29.451Z,15.90
2022-08-02T04:48:04.648Z,15.90
2022-08-02T04:50:32.102Z,16.00
2022-08-02T04:52:58.903Z,15.90
2022-08-02T04:55:28.675Z,16.00
2022-08-02T04:57:56.087Z,16.00
2022-08-02T05:00:23.492Z,16.00
2022-08-02T05:02:54.288Z,16.10
2022-08-02T05:05:21.078Z,16.20
2022-08-02T05:07:47.874Z,16.30
2022-08-02T05:10:15.165Z,16.40
2022-08-02T05:12:41.939Z,16.40
2022-08-02T05:15:12.850Z,16.40
2022-08-02T05:17:47.471Z,16.30
2022-08-02T05:20:19.002Z,16.40
2022-08-02T05:22:45.887Z,16.40
2022-08-02T05:25:12.897Z,16.50
2022-08-02T05:27:39.907Z,16.50
2022-08-02T05:30:07.799Z,16.70
2022-08-02T05:32:34.744Z,16.90
2022-08-02T05:35:02.452Z,16.90
2022-08-02T05:37:32.303Z,17.00
2022-08-02T05:40:01.046Z,17.10
2022-08-02T05:42:31.417Z,17.10
2022-08-02T05:44:58.316Z,17.30
2022-08-02T05:47:25.854Z,17.40
2022-08-02T05:49:53.081Z,17.50
2022-08-02T05:52:20.985Z,17.60
2022-08-02T05:54:58.929Z,17.90
2022-08-02T05:58:02.857Z,18.40
2022-08-02T06:00:33.717Z,18.70
2022-08-02T06:03:22.728Z,19.10
2022-08-02T06:06:14.566Z,19.60
2022-08-02T06:08:48.470Z,19.90
2022-08-02T06:11:22.040Z,20.00
2022-08-02T06:13:49.363Z,21.00
2022-08-02T06:16:16.378Z,22.00
2022-08-02T06:18:45.732Z,22.90
2022-08-02T06:22:33.203Z,23.70
2022-08-02T06:24:03.177Z,24.60
2022-08-02T06:26:30.257Z,25.40
2022-08-02T06:28:58.269Z,25.70
2022-08-02T06:31:25.404Z,25.80
2022-08-02T06:33:52.971Z,25.80
2022-08-02T06:37:01.836Z,26.00
2022-08-02T06:39:35.741Z,26.30
2022-08-02T06:42:10.567Z,27.30
2022-08-02T06:44:50.747Z,26.00
2022-08-02T06:47:19.866Z,25.30
2022-08-02T06:49:52.155Z,24.80
2022-08-02T06:52:33.194Z,24.30
2022-08-02T06:55:02.198Z,23.80
2022-08-02T06:57:29.943Z,23.30
2022-08-02T06:59:57.140Z,23.10
2022-08-02T07:02:24.369Z,22.60
2022-08-02T07:04:51.430Z,22.40
2022-08-02T07:07:18.223Z,22.40
2022-08-02T07:09:56.512Z,22.30
2022-08-02T07:12:30.359Z,22.10
2022-08-02T07:14:58.396Z,22.10
2022-08-02T07:17:25.191Z,22.10
2022-08-02T07:19:52.027Z,22.20
2022-08-02T07:22:20.197Z,22.40
2022-08-02T07:24:46.879Z,22.50
2022-08-02T07:27:13.905Z,22.60
2022-08-02T07:29:45.901Z,22.70
2022-08-02T07:32:17.316Z,22.80
2022-08-02T07:34:51.201Z,22.90
2022-08-02T07:37:35.168Z,22.90
2022-08-02T07:40:14.630Z,23.00
2022-08-02T07:42:45.298Z,23.10
2022-08-02T07:45:13.321Z,23.20
2022-08-02T07:47:41.041Z,23.30
2022-08-02T07:50:09.767Z,23.40
2022-08-02T07:52:36.718Z,23.60
2022-08-02T07:57:30.996Z,23.80
2022-08-02T07:59:57.789Z,23.90
2022-08-02T08:02:27.567Z,24.00
2022-08-02T08:04:54.410Z,24.10
2022-08-02T08:07:21.288Z,24.10
2022-08-02T08:09:50.747Z,24.10
2022-08-02T08:12:20.431Z,24.20
2022-08-02T08:14:47.169Z,24.30
2022-08-02T08:17:14.299Z,24.30
2022-08-02T08:19:53.260Z,24.30
2022-08-02T08:22:21.061Z,22.60
2022-08-02T08:24:48.918Z,24.50
2022-08-02T08:27:16.733Z,24.60
2022-08-02T08:29:43.634Z,24.60
2022-08-02T08:32:16.155Z,24.70
2022-08-02T08:34:44.834Z,24.70
2022-08-02T08:37:16.983Z,24.80
2022-08-02T08:39:59.096Z,24.80
2022-08-02T08:42:30.860Z,25.00
2022-08-02T08:44:59.364Z,25.10
2022-08-02T08:47:35.090Z,25.20
2022-08-02T08:50:07.295Z,25.40
2022-08-02T08:52:49.054Z,25.50
2022-08-02T08:55:16.553Z,25.60
2022-08-02T08:57:44.049Z,25.60
2022-08-02T09:00:13.414Z,25.60
2022-08-02T09:02:42.725Z,25.70
2022-08-02T09:05:15.749Z,25.80
2022-08-02T09:07:44.827Z,25.90
2022-08-02T09:10:36.302Z,25.90
2022-08-02T09:13:38.389Z,26.00
2022-08-02T09:16:12.833Z,25.90
2022-08-02T09:18:46.155Z,25.80
2022-08-02T09:21:15.418Z,25.80
2022-08-02T09:23:46.146Z,26.10
2022-08-02T09:26:15.536Z,26.20
2022-08-02T09:28:46.482Z,26.20
2022-08-02T09:31:16.300Z,26.10
2022-08-02T09:33:45.283Z,26.10
2022-08-02T09:38:41.721Z,26.40
2022-08-02T09:41:25.354Z,26.50
2022-08-02T09:44:03.658Z,26.60
2022-08-02T09:46:37.574Z,26.70
2022-08-02T09:49:13.151Z,26.70
2022-08-02T09:51:47.174Z,26.90
2022-08-02T09:54:32.974Z,27.10
2022-08-02T09:57:01.644Z,27.40
2022-08-02T09:59:29.280Z,27.50
2022-08-02T10:02:01.898Z,27.60
2022-08-02T10:04:34.343Z,27.70
2022-08-02T10:07:19.907Z,27.90
2022-08-02T10:09:49.171Z,28.10
2022-08-02T10:12:16.107Z,28.10
2022-08-02T10:14:43.889Z,28.20
2022-08-02T10:17:11.295Z,28.40
2022-08-02T10:22:26.143Z,28.40
2022-08-02T10:24:53.788Z,28.60
2022-08-02T10:27:25.088Z,28.90
2022-08-02T10:29:55.897Z,29.20
2022-08-02T10:32:28.749Z,29.30
2022-08-02T10:35:02.776Z,29.20
2022-08-02T10:37:49.115Z,28.90
2022-08-02T10:40:26.729Z,28.60
2022-08-02T10:43:01.431Z,28.40
2022-08-02T10:45:29.152Z,28.40
2022-08-02T10:48:09.031Z,28.60
2022-08-02T10:50:48.207Z,28.50
2022-08-02T10:53:34.347Z,28.40
2022-08-02T10:56:03.340Z,28.10
2022-08-02T10:58:34.632Z,27.90
2022-08-02T11:01:07.026Z,27.80
2022-08-02T11:03:40.200Z,27.70
2022-08-02T11:06:25.098Z,27.70
2022-08-02T11:09:34.721Z,27.90
2022-08-02T11:12:03.402Z,28.80
2022-08-02T11:14:32.071Z,28.20
2022-08-02T11:19:27.352Z,28.80
2022-08-02T11:22:03.256Z,29.00
2022-08-02T11:26:59.460Z,29.40
2022-08-02T11:29:33.210Z,29.30
2022-08-02T11:32:06.765Z,29.20
2022-08-02T11:34:36.779Z,29.10
2022-08-02T11:39:32.129Z,29.40
2022-08-02T11:42:00.461Z,29.40
2022-08-02T11:44:29.050Z,29.40
2022-08-02T11:47:02.675Z,29.60
2022-08-02T11:49:30.166Z,29.80
2022-08-02T11:52:01.697Z,29.60
2022-08-02T11:54:31.138Z,29.90
2022-08-02T11:57:09.883Z,30.20
2022-08-02T11:59:44.246Z,30.60
2022-08-02T12:02:12.376Z,30.70
2022-08-02T12:04:40.081Z,30.70
2022-08-02T12:09:40.932Z,30.50
2022-08-02T12:12:08.130Z,30.30
2022-08-02T12:14:43.035Z,30.20
2022-08-02T12:19:56.145Z,30.30
2022-08-02T12:22:27.805Z,30.40
2022-08-02T12:24:58.520Z,30.40
2022-08-02T12:27:29.330Z,30.10
2022-08-02T12:30:16.778Z,30.40
2022-08-02T12:33:07.640Z,30.60
2022-08-02T12:38:11.807Z,30.50
2022-08-02T12:40:39.149Z,30.40
2022-08-02T12:43:08.051Z,30.40
2022-08-02T12:45:51.187Z,30.10
2022-08-02T12:48:38.576Z,30.00
2022-08-02T12:51:25.149Z,29.80
2022-08-02T12:54:19.043Z,29.90
2022-08-02T12:56:45.911Z,29.80
2022-08-02T13:01:39.901Z,30.30
2022-08-02T13:04:10.326Z,30.40
2022-08-02T13:06:44.002Z,30.40
2022-08-02T13:09:16.873Z,30.40
2022-08-02T13:14:13.031Z,30.10
2022-08-02T13:16:41.259Z,29.90
2022-08-02T13:21:40.176Z,29.60
2022-08-02T13:27:09.493Z,29.80
2022-08-02T13:29:37.926Z,29.60
2022-08-02T13:34:32.180Z,30.10
2022-08-02T13:36:59.044Z,30.50
2022-08-02T13:39:25.988Z,30.50
2022-08-02T13:41:53.200Z,30.50
2022-08-02T13:51:47.542Z,30.40
2022-08-02T13:54:15.558Z,30.20
2022-08-02T13:56:43.016Z,29.80
2022-08-02T13:59:55.828Z,29.80
2022-08-02T14:01:58.374Z,29.80
2022-08-02T14:04:25.663Z,29.50
2022-08-02T14:06:52.469Z,29.60
2022-08-02T14:09:19.256Z,29.70
2022-08-02T14:11:46.801Z,29.80
2022-08-02T14:14:16.576Z,29.80
2022-08-02T14:16:45.240Z,29.90
2022-08-02T14:19:16.359Z,29.90
2022-08-02T14:21:46.877Z,29.80
2022-08-02T14:24:15.471Z,29.60
2022-08-02T14:26:42.355Z,29.70
2022-08-02T14:29:09.292Z,29.60
2022-08-02T14:31:40.190Z,29.60
2022-08-02T14:34:10.298Z,29.80
2022-08-02T14:36:38.247Z,29.80
2022-08-02T14:39:04.979Z,29.90
2022-08-02T14:41:33.755Z,29.80
2022-08-02T14:44:08.008Z,29.80
2022-08-02T14:46:37.709Z,29.60
2022-08-02T14:49:05.265Z,29.60
2022-08-02T14:51:32.621Z,29.70
2022-08-02T14:54:04.912Z,29.70
2022-08-02T14:56:35.552Z,29.50
2022-08-02T14:59:02.336Z,29.60
2022-08-02T15:01:29.159Z,29.70
2022-08-02T15:03:55.944Z,29.70
2022-08-02T15:06:22.962Z,29.60
2022-08-02T15:08:50.195Z,29.50
2022-08-02T15:11:17.088Z,29.40
2022-08-02T15:13:43.806Z,29.40
2022-08-02T15:16:11.075Z,29.30
2022-08-02T15:18:37.970Z,29.30
2022-08-02T15:21:27.523Z,29.30
2022-08-02T15:23:52.057Z,29.30
2022-08-02T15:26:20.905Z,29.40
2022-08-02T15:28:48.434Z,29.40
2022-08-02T15:31:33.197Z,29.60
2022-08-02T15:34:01.129Z,29.50
2022-08-02T15:36:29.630Z,31.30
2022-08-02T15:38:57.541Z,29.60
2022-08-02T15:41:24.591Z,29.60
2022-08-02T15:44:01.157Z,29.60
2022-08-02T15:46:30.870Z,29.60
2022-08-02T15:48:59.758Z,29.70
2022-08-02T15:51:26.954Z,29.70
2022-08-02T15:53:53.800Z,29.30
2022-08-02T15:56:22.123Z,29.30
2022-08-02T15:58:52.973Z,29.20
2022-08-02T16:01:24.219Z,29.20
2022-08-02T16:03:51.018Z,29.20
2022-08-02T16:06:17.852Z,29.30
2022-08-02T16:08:53.710Z,29.30
2022-08-02T16:11:21.944Z,29.30
2022-08-02T16:13:54.387Z,29.40
2022-08-02T16:16:26.986Z,29.40
2022-08-02T16:18:54.055Z,29.40
2022-08-02T16:21:22.860Z,29.40
2022-08-02T16:24:00.537Z,29.30
2022-08-02T16:26:34.711Z,29.40
2022-08-02T16:29:02.771Z,29.40
2022-08-02T16:31:29.985Z,29.30
2022-08-02T16:33:57.562Z,29.30
2022-08-02T16:36:26.154Z,29.20
2022-08-02T16:38:54.270Z,29.20
2022-08-02T16:41:22.006Z,29.20
2022-08-02T16:43:48.840Z,28.40
2022-08-02T16:46:15.571Z,29.10
2022-08-02T16:48:51.221Z,29.10
2022-08-02T16:51:19.159Z,29.10
2022-08-02T16:53:59.234Z,29.20
2022-08-02T16:56:28.435Z,29.10
2022-08-02T16:58:55.609Z,29.20
2022-08-02T17:02:01.763Z,29.10
2022-08-02T17:04:14.625Z,29.10
2022-08-02T17:06:47.860Z,29.00
2022-08-02T17:10:04.150Z,29.00
2022-08-02T17:12:15.737Z,28.90
2022-08-02T17:14:55.410Z,28.90
2022-08-02T17:17:34.040Z,28.90
2022-08-02T17:20:05.261Z,28.90
2022-08-02T17:22:31.931Z,28.80
2022-08-02T17:25:04.802Z,28.80
2022-08-02T17:27:31.540Z,28.70
2022-08-02T17:29:59.877Z,28.70
2022-08-02T17:32:29.153Z,28.70
2022-08-02T17:34:59.843Z,28.50
2022-08-02T17:37:28.504Z,28.50
2022-08-02T17:39:55.584Z,28.40
2022-08-02T17:42:23.772Z,28.40
2022-08-02T17:45:01.015Z,28.40
2022-08-02T17:47:42.421Z,28.40
2022-08-02T17:50:09.979Z,28.30
2022-08-02T17:52:51.145Z,28.30
2022-08-02T17:55:20.641Z,28.30
2022-08-02T17:57:57.619Z,28.30
2022-08-02T18:00:31.243Z,28.20
2022-08-02T18:03:00.744Z,28.20
2022-08-02T18:05:39.219Z,28.00
2022-08-02T18:08:07.544Z,27.90
2022-08-02T18:10:34.402Z,27.90
2022-08-02T18:13:01.207Z,27.80
2022-08-02T18:15:32.553Z,27.70
2022-08-02T18:18:00.416Z,27.70
2022-08-02T18:20:27.169Z,27.60
2022-08-02T18:22:58.528Z,27.60
2022-08-02T18:25:36.280Z,27.50
2022-08-02T18:28:10.573Z,27.50
2022-08-02T18:30:37.290Z,27.40
2022-08-02T18:33:57.761Z,27.20
2022-08-02T18:35:52.896Z,27.20
2022-08-02T18:38:22.278Z,27.10
2022-08-02T18:40:50.799Z,27.10
2022-08-02T18:43:18.562Z,27.00
2022-08-02T18:46:05.999Z,26.90
2022-08-02T18:48:32.448Z,26.70
2022-08-02T18:50:59.227Z,23.70
2022-08-02T18:53:39.402Z,26.70
2022-08-02T18:56:08.259Z,26.60
2022-08-02T18:58:35.167Z,26.60
2022-08-02T19:01:14.595Z,26.60
2022-08-02T19:03:41.918Z,26.60
2022-08-02T19:06:19.484Z,26.40
2022-08-02T19:09:05.994Z,26.30
2022-08-02T19:11:35.165Z,26.30
2022-08-02T19:16:37.655Z,26.10
2022-08-02T19:19:07.932Z,26.00
2022-08-02T19:22:17.246Z,25.90
2022-08-02T19:24:22.000Z,25.70
2022-08-02T19:26:52.036Z,25.70
2022-08-02T19:29:42.100Z,25.60
2022-08-02T19:32:41.366Z,25.50
2022-08-02T19:34:55.803Z,25.40
2022-08-02T19:39:50.505Z,25.30
2022-08-02T19:42:18.711Z,25.30
2022-08-02T19:44:46.088Z,25.20
2022-08-02T19:47:19.016Z,25.10
2022-08-02T20:02:48.810Z,24.10
2022-08-02T20:07:56.452Z,24.20
2022-08-02T20:15:21.897Z,24.30
2022-08-02T20:17:49.305Z,23.80
2022-08-02T20:28:40.444Z,23.20
2022-08-02T20:31:09.334Z,23.10
2022-08-02T20:36:23.306Z,23.10
2022-08-02T20:43:48.990Z,23.10
2022-08-02T20:48:44.042Z,22.80
2022-08-02T20:56:29.400Z,22.80
2022-08-02T21:01:37.061Z,22.70
2022-08-02T21:04:04.203Z,22.60
2022-08-02T21:16:45.424Z,22.50
2022-08-02T21:19:12.440Z,22.40
2022-08-02T21:24:06.453Z,22.30
2022-08-02T21:41:47.070Z,22.30
2022-08-02T21:49:20.634Z,22.00
2022-08-02T22:14:37.380Z,21.70
2022-08-02T22:22:28.416Z,21.50
2022-08-02T22:28:35.148Z,21.40
2022-08-02T22:43:06.372Z,21.30
2022-08-02T22:50:32.884Z,21.30
2022-08-02T22:57:59.508Z,21.20
2022-08-02T22:58:55.406Z,23.40
2022-08-02T23:12:42.978Z,21.00
2022-08-02T23:15:10.395Z,21.00
2022-08-02T23:25:18.797Z,20.90
2022-08-02T23:32:46.879Z,20.80
2022-08-02T23:48:13.329Z,20.50
2022-08-02T23:53:07.250Z,20.60
